sensor_id;sensor_type;location;lat;lon;timestamp;P1;durP1;ratioP1;P2;durP2;ratioP2
21890;SDS011;11110;52.386;16.940;2023-07-20T00:00:17;6.68;;;3.28;;
21890;SDS011;11110;52.386;16.940;2023-07-20T00:03:25;5.70;;;3.10;;
21890;SDS011;11110;52.386;16.940;2023-07-20T00:05:53;5.57;;;3.17;;
21890;SDS011;11110;52.386;16.940;2023-07-20T00:08:22;6.45;;;3.35;;
21890;SDS011;11110;52.386;16.940;2023-07-20T00:10:50;5.90;;;3.22;;
21890;SDS011;11110;52.386;16.940;2023-07-20T00:13:20;6.60;;;3.08;;
21890;SDS011;11110;52.386;16.940;2023-07-20T00:15:48;4.15;;;3.10;;
21890;SDS011;11110;52.386;16.940;2023-07-20T00:18:17;4.75;;;3.55;;
21890;SDS011;11110;52.386;16.940;2023-07-20T00:20:49;4.25;;;3.10;;
21890;SDS011;11110;52.386;16.940;2023-07-20T00:23:18;3.92;;;2.65;;
21890;SDS011;11110;52.386;16.940;2023-07-20T00:25:47;5.82;;;3.00;;
21890;SDS011;11110;52.386;16.940;2023-07-20T00:28:16;5.40;;;3.10;;
21890;SDS011;11110;52.386;16.940;2023-07-20T00:30:44;4.03;;;2.83;;
21890;SDS011;11110;52.386;16.940;2023-07-20T00:33:13;6.20;;;3.25;;
21890;SDS011;11110;52.386;16.940;2023-07-20T00:35:44;5.30;;;3.03;;
21890;SDS011;11110;52.386;16.940;2023-07-20T00:38:17;5.72;;;2.95;;
21890;SDS011;11110;52.386;16.940;2023-07-20T00:40:47;4.65;;;3.15;;
21890;SDS011;11110;52.386;16.940;2023-07-20T00:43:17;4.47;;;3.28;;
21890;SDS011;11110;52.386;16.940;2023-07-20T00:45:46;4.53;;;2.72;;
21890;SDS011;11110;52.386;16.940;2023-07-20T00:48:14;5.03;;;3.08;;
21890;SDS011;11110;52.386;16.940;2023-07-20T00:50:43;5.75;;;3.00;;
21890;SDS011;11110;52.386;16.940;2023-07-20T00:53:13;5.90;;;3.38;;
21890;SDS011;11110;52.386;16.940;2023-07-20T00:55:43;5.63;;;3.90;;
21890;SDS011;11110;52.386;16.940;2023-07-20T00:58:12;5.25;;;3.40;;
21890;SDS011;11110;52.386;16.940;2023-07-20T01:00:40;4.80;;;4.05;;
21890;SDS011;11110;52.386;16.940;2023-07-20T01:03:09;7.30;;;3.25;;
21890;SDS011;11110;52.386;16.940;2023-07-20T01:05:38;4.18;;;3.20;;
21890;SDS011;11110;52.386;16.940;2023-07-20T01:08:15;7.25;;;3.97;;
21890;SDS011;11110;52.386;16.940;2023-07-20T01:10:54;4.13;;;3.10;;
21890;SDS011;11110;52.386;16.940;2023-07-20T01:13:27;3.97;;;2.95;;
21890;SDS011;11110;52.386;16.940;2023-07-20T01:15:56;5.70;;;2.85;;
21890;SDS011;11110;52.386;16.940;2023-07-20T01:18:29;6.20;;;3.15;;
21890;SDS011;11110;52.386;16.940;2023-07-20T01:20:58;5.18;;;2.88;;
21890;SDS011;11110;52.386;16.940;2023-07-20T01:23:43;5.13;;;3.25;;
21890;SDS011;11110;52.386;16.940;2023-07-20T01:26:41;3.70;;;3.00;;
21890;SDS011;11110;52.386;16.940;2023-07-20T01:29:46;4.95;;;3.33;;
21890;SDS011;11110;52.386;16.940;2023-07-20T01:32:30;5.78;;;3.50;;
21890;SDS011;11110;52.386;16.940;2023-07-20T01:34:59;5.97;;;3.47;;
21890;SDS011;11110;52.386;16.940;2023-07-20T01:37:29;4.43;;;3.22;;
21890;SDS011;11110;52.386;16.940;2023-07-20T01:39:59;4.88;;;3.20;;
21890;SDS011;11110;52.386;16.940;2023-07-20T01:42:28;5.75;;;3.17;;
21890;SDS011;11110;52.386;16.940;2023-07-20T01:44:57;5.32;;;3.53;;
21890;SDS011;11110;52.386;16.940;2023-07-20T01:47:26;4.55;;;3.17;;
21890;SDS011;11110;52.386;16.940;2023-07-20T01:49:56;5.90;;;3.55;;
21890;SDS011;11110;52.386;16.940;2023-07-20T01:52:24;4.70;;;3.15;;
21890;SDS011;11110;52.386;16.940;2023-07-20T01:54:53;6.38;;;3.58;;
21890;SDS011;11110;52.386;16.940;2023-07-20T01:57:21;5.43;;;3.25;;
21890;SDS011;11110;52.386;16.940;2023-07-20T01:59:50;4.05;;;3.50;;
21890;SDS011;11110;52.386;16.940;2023-07-20T02:02:18;5.70;;;3.58;;
21890;SDS011;11110;52.386;16.940;2023-07-20T02:04:47;7.15;;;3.95;;
21890;SDS011;11110;52.386;16.940;2023-07-20T02:07:17;7.68;;;3.50;;
21890;SDS011;11110;52.386;16.940;2023-07-20T02:09:46;5.88;;;3.85;;
21890;SDS011;11110;52.386;16.940;2023-07-20T02:12:14;6.57;;;3.95;;
21890;SDS011;11110;52.386;16.940;2023-07-20T02:14:43;4.55;;;3.72;;
21890;SDS011;11110;52.386;16.940;2023-07-20T02:17:12;5.65;;;3.55;;
21890;SDS011;11110;52.386;16.940;2023-07-20T02:19:40;4.35;;;3.60;;
21890;SDS011;11110;52.386;16.940;2023-07-20T02:22:09;6.38;;;3.45;;
21890;SDS011;11110;52.386;16.940;2023-07-20T02:24:39;5.07;;;3.88;;
21890;SDS011;11110;52.386;16.940;2023-07-20T02:27:07;8.20;;;3.67;;
21890;SDS011;11110;52.386;16.940;2023-07-20T02:29:36;9.13;;;3.92;;
21890;SDS011;11110;52.386;16.940;2023-07-20T02:32:05;4.63;;;3.75;;
21890;SDS011;11110;52.386;16.940;2023-07-20T02:34:34;4.72;;;3.72;;
21890;SDS011;11110;52.386;16.940;2023-07-20T02:37:02;3.90;;;3.53;;
21890;SDS011;11110;52.386;16.940;2023-07-20T02:39:31;6.38;;;3.63;;
21890;SDS011;11110;52.386;16.940;2023-07-20T02:42:01;5.03;;;3.67;;
21890;SDS011;11110;52.386;16.940;2023-07-20T02:44:30;5.07;;;4.03;;
21890;SDS011;11110;52.386;16.940;2023-07-20T02:46:59;7.18;;;4.00;;
21890;SDS011;11110;52.386;16.940;2023-07-20T02:49:28;5.25;;;3.90;;
21890;SDS011;11110;52.386;16.940;2023-07-20T02:51:57;4.07;;;3.55;;
21890;SDS011;11110;52.386;16.940;2023-07-20T02:54:25;5.25;;;3.85;;
21890;SDS011;11110;52.386;16.940;2023-07-20T02:56:54;7.45;;;3.92;;
21890;SDS011;11110;52.386;16.940;2023-07-20T02:59:24;5.65;;;3.70;;
21890;SDS011;11110;52.386;16.940;2023-07-20T03:01:52;5.50;;;3.75;;
21890;SDS011;11110;52.386;16.940;2023-07-20T03:04:21;4.15;;;3.75;;
21890;SDS011;11110;52.386;16.940;2023-07-20T03:06:50;5.63;;;3.78;;
21890;SDS011;11110;52.386;16.940;2023-07-20T03:09:19;6.50;;;3.95;;
21890;SDS011;11110;52.386;16.940;2023-07-20T03:11:49;6.03;;;4.13;;
21890;SDS011;11110;52.386;16.940;2023-07-20T03:14:18;3.80;;;3.50;;
21890;SDS011;11110;52.386;16.940;2023-07-20T03:16:48;6.53;;;4.30;;
21890;SDS011;11110;52.386;16.940;2023-07-20T03:19:16;9.98;;;4.18;;
21890;SDS011;11110;52.386;16.940;2023-07-20T03:21:45;6.88;;;4.43;;
21890;SDS011;11110;52.386;16.940;2023-07-20T03:24:13;6.45;;;4.25;;
21890;SDS011;11110;52.386;16.940;2023-07-20T03:26:42;7.07;;;4.40;;
21890;SDS011;11110;52.386;16.940;2023-07-20T03:29:11;6.78;;;3.97;;
21890;SDS011;11110;52.386;16.940;2023-07-20T03:31:39;7.22;;;4.63;;
21890;SDS011;11110;52.386;16.940;2023-07-20T03:34:09;6.57;;;4.38;;
21890;SDS011;11110;52.386;16.940;2023-07-20T03:36:41;7.10;;;4.68;;
21890;SDS011;11110;52.386;16.940;2023-07-20T03:39:12;4.85;;;3.72;;
21890;SDS011;11110;52.386;16.940;2023-07-20T03:41:40;4.50;;;3.95;;
21890;SDS011;11110;52.386;16.940;2023-07-20T03:44:09;7.80;;;4.25;;
21890;SDS011;11110;52.386;16.940;2023-07-20T03:46:38;5.45;;;4.28;;
21890;SDS011;11110;52.386;16.940;2023-07-20T03:49:07;7.55;;;4.40;;
21890;SDS011;11110;52.386;16.940;2023-07-20T03:51:37;4.60;;;3.95;;
21890;SDS011;11110;52.386;16.940;2023-07-20T03:54:06;6.28;;;3.85;;
21890;SDS011;11110;52.386;16.940;2023-07-20T03:56:34;7.05;;;3.83;;
21890;SDS011;11110;52.386;16.940;2023-07-20T03:59:03;6.20;;;4.05;;
21890;SDS011;11110;52.386;16.940;2023-07-20T04:01:32;4.78;;;4.15;;
21890;SDS011;11110;52.386;16.940;2023-07-20T04:04:05;7.07;;;4.35;;
21890;SDS011;11110;52.386;16.940;2023-07-20T04:06:37;5.93;;;4.07;;
21890;SDS011;11110;52.386;16.940;2023-07-20T04:09:06;6.53;;;4.15;;
21890;SDS011;11110;52.386;16.940;2023-07-20T04:11:34;6.13;;;4.20;;
21890;SDS011;11110;52.386;16.940;2023-07-20T04:14:03;4.45;;;4.05;;
21890;SDS011;11110;52.386;16.940;2023-07-20T04:16:31;5.63;;;4.15;;
21890;SDS011;11110;52.386;16.940;2023-07-20T04:19:01;4.60;;;3.55;;
21890;SDS011;11110;52.386;16.940;2023-07-20T04:21:29;4.88;;;4.30;;
21890;SDS011;11110;52.386;16.940;2023-07-20T04:23:59;4.53;;;3.85;;
21890;SDS011;11110;52.386;16.940;2023-07-20T04:26:28;5.40;;;3.90;;
21890;SDS011;11110;52.386;16.940;2023-07-20T04:28:57;5.30;;;3.70;;
21890;SDS011;11110;52.386;16.940;2023-07-20T04:31:33;6.82;;;3.80;;
21890;SDS011;11110;52.386;16.940;2023-07-20T04:34:03;4.93;;;4.18;;
21890;SDS011;11110;52.386;16.940;2023-07-20T04:36:34;4.47;;;4.03;;
21890;SDS011;11110;52.386;16.940;2023-07-20T04:39:05;4.75;;;4.00;;
21890;SDS011;11110;52.386;16.940;2023-07-20T04:41:52;6.45;;;4.30;;
21890;SDS011;11110;52.386;16.940;2023-07-20T04:44:21;5.13;;;4.50;;
21890;SDS011;11110;52.386;16.940;2023-07-20T04:46:49;4.57;;;4.15;;
21890;SDS011;11110;52.386;16.940;2023-07-20T04:49:18;4.90;;;3.20;;
21890;SDS011;11110;52.386;16.940;2023-07-20T04:51:47;7.00;;;4.45;;
21890;SDS011;11110;52.386;16.940;2023-07-20T04:54:18;4.93;;;4.10;;
21890;SDS011;11110;52.386;16.940;2023-07-20T04:56:47;5.35;;;3.90;;
21890;SDS011;11110;52.386;16.940;2023-07-20T04:59:19;6.95;;;4.18;;
21890;SDS011;11110;52.386;16.940;2023-07-20T05:01:47;6.00;;;4.30;;
21890;SDS011;11110;52.386;16.940;2023-07-20T05:04:17;6.38;;;4.47;;
21890;SDS011;11110;52.386;16.940;2023-07-20T05:06:49;6.75;;;4.95;;
21890;SDS011;11110;52.386;16.940;2023-07-20T05:09:19;4.75;;;4.25;;
21890;SDS011;11110;52.386;16.940;2023-07-20T05:11:48;6.60;;;4.32;;
21890;SDS011;11110;52.386;16.940;2023-07-20T05:14:16;7.00;;;4.50;;
21890;SDS011;11110;52.386;16.940;2023-07-20T05:16:46;6.07;;;4.07;;
21890;SDS011;11110;52.386;16.940;2023-07-20T05:19:15;5.60;;;4.30;;
21890;SDS011;11110;52.386;16.940;2023-07-20T05:21:44;5.75;;;4.20;;
21890;SDS011;11110;52.386;16.940;2023-07-20T05:24:13;7.22;;;4.60;;
21890;SDS011;11110;52.386;16.940;2023-07-20T05:26:43;5.65;;;4.53;;
21890;SDS011;11110;52.386;16.940;2023-07-20T05:29:12;4.53;;;3.80;;
21890;SDS011;11110;52.386;16.940;2023-07-20T05:31:40;5.25;;;4.07;;
21890;SDS011;11110;52.386;16.940;2023-07-20T05:34:09;4.75;;;4.35;;
21890;SDS011;11110;52.386;16.940;2023-07-20T05:36:37;6.13;;;4.75;;
21890;SDS011;11110;52.386;16.940;2023-07-20T05:39:24;5.97;;;4.25;;
21890;SDS011;11110;52.386;16.940;2023-07-20T05:41:54;5.47;;;4.88;;
21890;SDS011;11110;52.386;16.940;2023-07-20T05:44:22;4.97;;;4.25;;
21890;SDS011;11110;52.386;16.940;2023-07-20T05:46:51;6.15;;;4.68;;
21890;SDS011;11110;52.386;16.940;2023-07-20T05:49:24;7.63;;;4.47;;
21890;SDS011;11110;52.386;16.940;2023-07-20T05:51:52;8.45;;;5.57;;
21890;SDS011;11110;52.386;16.940;2023-07-20T05:54:21;9.07;;;4.05;;
21890;SDS011;11110;52.386;16.940;2023-07-20T05:56:51;6.55;;;4.40;;
21890;SDS011;11110;52.386;16.940;2023-07-20T05:59:22;4.93;;;3.70;;
21890;SDS011;11110;52.386;16.940;2023-07-20T06:01:51;7.45;;;4.20;;
21890;SDS011;11110;52.386;16.940;2023-07-20T06:04:20;5.82;;;3.97;;
21890;SDS011;11110;52.386;16.940;2023-07-20T06:06:49;7.57;;;4.15;;
21890;SDS011;11110;52.386;16.940;2023-07-20T06:09:17;5.30;;;4.38;;
21890;SDS011;11110;52.386;16.940;2023-07-20T06:11:46;6.55;;;3.78;;
21890;SDS011;11110;52.386;16.940;2023-07-20T06:14:16;5.82;;;4.90;;
21890;SDS011;11110;52.386;16.940;2023-07-20T06:16:45;5.63;;;4.07;;
21890;SDS011;11110;52.386;16.940;2023-07-20T06:19:14;5.63;;;4.65;;
21890;SDS011;11110;52.386;16.940;2023-07-20T06:21:42;6.35;;;4.45;;
21890;SDS011;11110;52.386;16.940;2023-07-20T06:24:11;4.72;;;4.32;;
21890;SDS011;11110;52.386;16.940;2023-07-20T06:26:39;5.38;;;4.05;;
21890;SDS011;11110;52.386;16.940;2023-07-20T06:29:08;4.93;;;4.18;;
21890;SDS011;11110;52.386;16.940;2023-07-20T06:31:38;5.25;;;4.55;;
21890;SDS011;11110;52.386;16.940;2023-07-20T06:34:07;8.02;;;4.25;;
21890;SDS011;11110;52.386;16.940;2023-07-20T06:36:35;6.25;;;4.82;;
21890;SDS011;11110;52.386;16.940;2023-07-20T06:39:04;6.30;;;4.15;;
21890;SDS011;11110;52.386;16.940;2023-07-20T06:41:36;4.93;;;3.90;;
21890;SDS011;11110;52.386;16.940;2023-07-20T06:44:08;6.45;;;4.18;;
21890;SDS011;11110;52.386;16.940;2023-07-20T06:46:36;7.65;;;4.70;;
21890;SDS011;11110;52.386;16.940;2023-07-20T06:49:07;4.20;;;3.47;;
21890;SDS011;11110;52.386;16.940;2023-07-20T06:51:38;4.38;;;3.78;;
21890;SDS011;11110;52.386;16.940;2023-07-20T06:54:07;4.53;;;3.40;;
21890;SDS011;11110;52.386;16.940;2023-07-20T06:56:35;4.28;;;3.55;;
21890;SDS011;11110;52.386;16.940;2023-07-20T06:59:03;5.55;;;3.70;;
21890;SDS011;11110;52.386;16.940;2023-07-20T07:01:32;4.50;;;3.10;;
21890;SDS011;11110;52.386;16.940;2023-07-20T07:04:00;4.38;;;3.10;;
21890;SDS011;11110;52.386;16.940;2023-07-20T07:06:30;5.28;;;3.30;;
21890;SDS011;11110;52.386;16.940;2023-07-20T07:09:00;2.80;;;2.58;;
21890;SDS011;11110;52.386;16.940;2023-07-20T07:11:28;2.67;;;2.47;;
21890;SDS011;11110;52.386;16.940;2023-07-20T07:13:57;4.35;;;3.08;;
21890;SDS011;11110;52.386;16.940;2023-07-20T07:16:25;5.82;;;2.72;;
21890;SDS011;11110;52.386;16.940;2023-07-20T07:18:54;3.33;;;2.58;;
21890;SDS011;11110;52.386;16.940;2023-07-20T07:21:26;3.20;;;2.50;;
21890;SDS011;11110;52.386;16.940;2023-07-20T07:23:56;4.63;;;2.70;;
21890;SDS011;11110;52.386;16.940;2023-07-20T07:26:26;3.22;;;2.92;;
21890;SDS011;11110;52.386;16.940;2023-07-20T07:28:54;4.90;;;2.70;;
21890;SDS011;11110;52.386;16.940;2023-07-20T07:31:24;4.13;;;2.42;;
21890;SDS011;11110;52.386;16.940;2023-07-20T07:33:53;4.32;;;3.13;;
21890;SDS011;11110;52.386;16.940;2023-07-20T07:36:22;6.63;;;2.60;;
21890;SDS011;11110;52.386;16.940;2023-07-20T07:38:51;2.45;;;2.25;;
21890;SDS011;11110;52.386;16.940;2023-07-20T07:41:24;5.50;;;2.72;;
21890;SDS011;11110;52.386;16.940;2023-07-20T07:43:52;2.95;;;2.53;;
21890;SDS011;11110;52.386;16.940;2023-07-20T07:46:20;3.00;;;2.50;;
21890;SDS011;11110;52.386;16.940;2023-07-20T07:48:50;2.70;;;2.22;;
21890;SDS011;11110;52.386;16.940;2023-07-20T07:51:18;3.08;;;2.42;;
21890;SDS011;11110;52.386;16.940;2023-07-20T07:53:46;3.75;;;2.30;;
21890;SDS011;11110;52.386;16.940;2023-07-20T07:56:16;2.80;;;2.25;;
21890;SDS011;11110;52.386;16.940;2023-07-20T07:58:50;3.85;;;1.98;;
21890;SDS011;11110;52.386;16.940;2023-07-20T08:01:19;7.55;;;2.45;;
21890;SDS011;11110;52.386;16.940;2023-07-20T08:03:47;3.25;;;2.20;;
21890;SDS011;11110;52.386;16.940;2023-07-20T08:06:16;3.95;;;2.50;;
21890;SDS011;11110;52.386;16.940;2023-07-20T08:08:45;2.53;;;2.03;;
21890;SDS011;11110;52.386;16.940;2023-07-20T08:11:13;5.60;;;2.10;;
21890;SDS011;11110;52.386;16.940;2023-07-20T08:13:42;3.60;;;2.00;;
21890;SDS011;11110;52.386;16.940;2023-07-20T08:16:11;5.63;;;2.17;;
21890;SDS011;11110;52.386;16.940;2023-07-20T08:18:41;4.28;;;1.95;;
21890;SDS011;11110;52.386;16.940;2023-07-20T08:21:12;4.25;;;2.35;;
21890;SDS011;11110;52.386;16.940;2023-07-20T08:23:40;5.13;;;2.78;;
21890;SDS011;11110;52.386;16.940;2023-07-20T08:26:09;3.83;;;2.55;;
21890;SDS011;11110;52.386;16.940;2023-07-20T08:28:38;4.95;;;2.70;;
21890;SDS011;11110;52.386;16.940;2023-07-20T08:31:06;2.38;;;2.17;;
21890;SDS011;11110;52.386;16.940;2023-07-20T08:33:36;3.38;;;2.75;;
21890;SDS011;11110;52.386;16.940;2023-07-20T08:36:05;4.07;;;2.60;;
21890;SDS011;11110;52.386;16.940;2023-07-20T08:38:38;1.80;;;1.70;;
21890;SDS011;11110;52.386;16.940;2023-07-20T08:41:06;2.50;;;1.98;;
21890;SDS011;11110;52.386;16.940;2023-07-20T08:43:37;2.45;;;2.25;;
21890;SDS011;11110;52.386;16.940;2023-07-20T08:46:09;3.13;;;2.00;;
21890;SDS011;11110;52.386;16.940;2023-07-20T08:48:43;2.65;;;2.20;;
21890;SDS011;11110;52.386;16.940;2023-07-20T08:51:12;4.53;;;2.30;;
21890;SDS011;11110;52.386;16.940;2023-07-20T08:53:41;4.13;;;2.60;;
21890;SDS011;11110;52.386;16.940;2023-07-20T08:56:11;2.55;;;2.25;;
21890;SDS011;11110;52.386;16.940;2023-07-20T08:58:43;5.55;;;3.28;;
21890;SDS011;11110;52.386;16.940;2023-07-20T09:01:12;4.35;;;2.42;;
21890;SDS011;11110;52.386;16.940;2023-07-20T09:03:42;2.65;;;2.45;;
21890;SDS011;11110;52.386;16.940;2023-07-20T09:06:13;2.90;;;2.60;;
21890;SDS011;11110;52.386;16.940;2023-07-20T09:08:41;4.10;;;2.90;;
21890;SDS011;11110;52.386;16.940;2023-07-20T09:11:11;2.80;;;2.42;;
21890;SDS011;11110;52.386;16.940;2023-07-20T09:13:40;3.80;;;3.42;;
21890;SDS011;11110;52.386;16.940;2023-07-20T09:16:09;5.65;;;3.70;;
21890;SDS011;11110;52.386;16.940;2023-07-20T09:18:43;5.55;;;5.00;;
21890;SDS011;11110;52.386;16.940;2023-07-20T09:21:11;4.60;;;3.08;;
21890;SDS011;11110;52.386;16.940;2023-07-20T09:23:44;3.63;;;2.33;;
21890;SDS011;11110;52.386;16.940;2023-07-20T09:26:13;2.35;;;1.48;;
21890;SDS011;11110;52.386;16.940;2023-07-20T09:28:49;3.25;;;2.05;;
21890;SDS011;11110;52.386;16.940;2023-07-20T09:31:21;2.97;;;1.40;;
21890;SDS011;11110;52.386;16.940;2023-07-20T09:33:52;5.30;;;2.13;;
21890;SDS011;11110;52.386;16.940;2023-07-20T09:36:24;1.52;;;1.13;;
21890;SDS011;11110;52.386;16.940;2023-07-20T09:38:58;2.53;;;1.77;;
21890;SDS011;11110;52.386;16.940;2023-07-20T09:41:30;1.05;;;1.00;;
21890;SDS011;11110;52.386;16.940;2023-07-20T09:44:12;1.20;;;1.10;;
21890;SDS011;11110;52.386;16.940;2023-07-20T09:46:45;1.20;;;1.10;;
21890;SDS011;11110;52.386;16.940;2023-07-20T09:49:19;2.55;;;0.95;;
21890;SDS011;11110;52.386;16.940;2023-07-20T09:51:50;1.30;;;1.20;;
21890;SDS011;11110;52.386;16.940;2023-07-20T09:54:21;0.93;;;0.93;;
21890;SDS011;11110;52.386;16.940;2023-07-20T09:56:50;1.50;;;1.40;;
21890;SDS011;11110;52.386;16.940;2023-07-20T09:59:20;1.48;;;1.30;;
21890;SDS011;11110;52.386;16.940;2023-07-20T10:01:48;1.83;;;1.70;;
21890;SDS011;11110;52.386;16.940;2023-07-20T10:04:19;1.83;;;1.35;;
21890;SDS011;11110;52.386;16.940;2023-07-20T10:06:50;1.50;;;1.15;;
21890;SDS011;11110;52.386;16.940;2023-07-20T10:09:23;1.45;;;1.35;;
21890;SDS011;11110;52.386;16.940;2023-07-20T10:11:53;0.68;;;0.68;;
21890;SDS011;11110;52.386;16.940;2023-07-20T10:14:43;3.50;;;1.48;;
21890;SDS011;11110;52.386;16.940;2023-07-20T10:17:26;2.28;;;1.90;;
21890;SDS011;11110;52.386;16.940;2023-07-20T10:19:56;2.60;;;1.58;;
21890;SDS011;11110;52.386;16.940;2023-07-20T10:22:27;2.03;;;1.27;;
21890;SDS011;11110;52.386;16.940;2023-07-20T10:25:08;2.05;;;1.85;;
21890;SDS011;11110;52.386;16.940;2023-07-20T10:27:37;1.38;;;1.30;;
21890;SDS011;11110;52.386;16.940;2023-07-20T10:30:07;2.90;;;1.75;;
21890;SDS011;11110;52.386;16.940;2023-07-20T10:32:36;2.40;;;2.17;;
21890;SDS011;11110;52.386;16.940;2023-07-20T10:35:13;1.80;;;1.70;;
21890;SDS011;11110;52.386;16.940;2023-07-20T10:37:49;2.42;;;1.52;;
21890;SDS011;11110;52.386;16.940;2023-07-20T10:40:26;2.13;;;1.92;;
21890;SDS011;11110;52.386;16.940;2023-07-20T10:42:57;1.20;;;1.20;;
21890;SDS011;11110;52.386;16.940;2023-07-20T10:45:34;4.15;;;3.15;;
21890;SDS011;11110;52.386;16.940;2023-07-20T10:48:14;2.80;;;2.25;;
21890;SDS011;11110;52.386;16.940;2023-07-20T10:50:46;3.25;;;2.30;;
21890;SDS011;11110;52.386;16.940;2023-07-20T10:53:29;2.25;;;2.05;;
21890;SDS011;11110;52.386;16.940;2023-07-20T10:56:05;2.58;;;2.38;;
21890;SDS011;11110;52.386;16.940;2023-07-20T10:58:35;3.08;;;2.85;;
21890;SDS011;11110;52.386;16.940;2023-07-20T11:01:03;3.25;;;2.60;;
21890;SDS011;11110;52.386;16.940;2023-07-20T11:03:33;3.22;;;2.92;;
21890;SDS011;11110;52.386;16.940;2023-07-20T11:09:09;2.60;;;2.40;;
21890;SDS011;11110;52.386;16.940;2023-07-20T11:11:41;2.97;;;2.72;;
21890;SDS011;11110;52.386;16.940;2023-07-20T11:14:19;4.43;;;2.38;;
21890;SDS011;11110;52.386;16.940;2023-07-20T11:16:49;2.35;;;2.15;;
21890;SDS011;11110;52.386;16.940;2023-07-20T11:19:20;2.17;;;2.05;;
21890;SDS011;11110;52.386;16.940;2023-07-20T11:21:55;2.28;;;1.85;;
21890;SDS011;11110;52.386;16.940;2023-07-20T11:24:27;3.80;;;2.20;;
21890;SDS011;11110;52.386;16.940;2023-07-20T11:26:56;2.55;;;1.98;;
21890;SDS011;11110;52.386;16.940;2023-07-20T11:29:25;2.45;;;2.00;;
21890;SDS011;11110;52.386;16.940;2023-07-20T11:32:00;2.00;;;1.90;;
21890;SDS011;11110;52.386;16.940;2023-07-20T11:34:31;2.08;;;1.98;;
21890;SDS011;11110;52.386;16.940;2023-07-20T11:37:02;3.53;;;2.10;;
21890;SDS011;11110;52.386;16.940;2023-07-20T11:39:36;2.40;;;2.17;;
21890;SDS011;11110;52.386;16.940;2023-07-20T11:42:05;2.75;;;2.00;;
21890;SDS011;11110;52.386;16.940;2023-07-20T11:44:34;2.70;;;1.52;;
21890;SDS011;11110;52.386;16.940;2023-07-20T11:47:03;3.17;;;1.60;;
21890;SDS011;11110;52.386;16.940;2023-07-20T11:49:34;2.22;;;1.90;;
21890;SDS011;11110;52.386;16.940;2023-07-20T11:52:06;2.17;;;1.58;;
21890;SDS011;11110;52.386;16.940;2023-07-20T11:54:37;2.67;;;1.50;;
21890;SDS011;11110;52.386;16.940;2023-07-20T11:57:15;2.22;;;1.42;;
21890;SDS011;11110;52.386;16.940;2023-07-20T11:59:52;1.33;;;1.23;;
21890;SDS011;11110;52.386;16.940;2023-07-20T12:02:21;1.70;;;1.60;;
21890;SDS011;11110;52.386;16.940;2023-07-20T12:04:51;1.30;;;1.20;;
21890;SDS011;11110;52.386;16.940;2023-07-20T12:07:21;0.90;;;0.90;;
21890;SDS011;11110;52.386;16.940;2023-07-20T12:10:02;0.82;;;0.82;;
21890;SDS011;11110;52.386;16.940;2023-07-20T12:12:32;0.93;;;0.80;;
21890;SDS011;11110;52.386;16.940;2023-07-20T12:15:16;1.02;;;1.02;;
21890;SDS011;11110;52.386;16.940;2023-07-20T12:17:49;0.80;;;0.80;;
21890;SDS011;11110;52.386;16.940;2023-07-20T12:20:25;0.80;;;0.80;;
21890;SDS011;11110;52.386;16.940;2023-07-20T12:22:58;0.90;;;0.90;;
21890;SDS011;11110;52.386;16.940;2023-07-20T12:25:38;0.73;;;0.73;;
21890;SDS011;11110;52.386;16.940;2023-07-20T12:28:08;0.80;;;0.80;;
21890;SDS011;11110;52.386;16.940;2023-07-20T12:30:37;0.70;;;0.70;;
21890;SDS011;11110;52.386;16.940;2023-07-20T12:33:07;0.57;;;0.57;;
21890;SDS011;11110;52.386;16.940;2023-07-20T12:35:35;0.70;;;0.70;;
21890;SDS011;11110;52.386;16.940;2023-07-20T12:38:06;0.90;;;0.90;;
21890;SDS011;11110;52.386;16.940;2023-07-20T12:40:35;0.93;;;0.80;;
21890;SDS011;11110;52.386;16.940;2023-07-20T12:43:03;1.38;;;1.27;;
21890;SDS011;11110;52.386;16.940;2023-07-20T12:45:33;1.92;;;1.00;;
21890;SDS011;11110;52.386;16.940;2023-07-20T12:48:02;3.03;;;1.15;;
21890;SDS011;11110;52.386;16.940;2023-07-20T12:50:31;0.95;;;0.85;;
21890;SDS011;11110;52.386;16.940;2023-07-20T12:53:00;1.90;;;0.90;;
21890;SDS011;11110;52.386;16.940;2023-07-20T12:55:31;0.90;;;0.80;;
21890;SDS011;11110;52.386;16.940;2023-07-20T12:58:00;1.08;;;1.00;;
21890;SDS011;11110;52.386;16.940;2023-07-20T13:00:28;2.05;;;0.80;;
21890;SDS011;11110;52.386;16.940;2023-07-20T13:02:58;1.33;;;1.08;;
21890;SDS011;11110;52.386;16.940;2023-07-20T13:05:32;1.48;;;0.88;;
21890;SDS011;11110;52.386;16.940;2023-07-20T13:08:04;0.95;;;0.95;;
21890;SDS011;11110;52.386;16.940;2023-07-20T13:10:37;1.00;;;0.90;;
21890;SDS011;11110;52.386;16.940;2023-07-20T13:13:06;0.90;;;0.90;;
21890;SDS011;11110;52.386;16.940;2023-07-20T13:15:40;2.88;;;0.95;;
21890;SDS011;11110;52.386;16.940;2023-07-20T13:18:10;1.45;;;0.93;;
21890;SDS011;11110;52.386;16.940;2023-07-20T13:20:38;1.10;;;1.10;;
21890;SDS011;11110;52.386;16.940;2023-07-20T13:23:07;0.98;;;0.95;;
21890;SDS011;11110;52.386;16.940;2023-07-20T13:25:37;1.00;;;1.00;;
21890;SDS011;11110;52.386;16.940;2023-07-20T13:28:05;3.08;;;1.20;;
21890;SDS011;11110;52.386;16.940;2023-07-20T13:30:34;1.00;;;1.00;;
21890;SDS011;11110;52.386;16.940;2023-07-20T13:33:07;1.00;;;1.00;;
21890;SDS011;11110;52.386;16.940;2023-07-20T13:35:39;1.95;;;1.10;;
21890;SDS011;11110;52.386;16.940;2023-07-20T13:38:11;1.25;;;1.15;;
21890;SDS011;11110;52.386;16.940;2023-07-20T13:40:41;1.17;;;1.08;;
21890;SDS011;11110;52.386;16.940;2023-07-20T13:43:10;1.00;;;1.00;;
21890;SDS011;11110;52.386;16.940;2023-07-20T13:45:38;1.20;;;1.10;;
21890;SDS011;11110;52.386;16.940;2023-07-20T13:48:07;1.40;;;1.15;;
21890;SDS011;11110;52.386;16.940;2023-07-20T13:50:36;1.15;;;1.02;;
21890;SDS011;11110;52.386;16.940;2023-07-20T13:53:07;1.13;;;0.93;;
21890;SDS011;11110;52.386;16.940;2023-07-20T13:55:40;1.05;;;0.98;;
21890;SDS011;11110;52.386;16.940;2023-07-20T13:58:12;1.10;;;1.00;;
21890;SDS011;11110;52.386;16.940;2023-07-20T14:00:40;1.00;;;1.00;;
21890;SDS011;11110;52.386;16.940;2023-07-20T14:03:09;1.55;;;1.02;;
21890;SDS011;11110;52.386;16.940;2023-07-20T14:05:40;1.38;;;1.05;;
21890;SDS011;11110;52.386;16.940;2023-07-20T14:08:13;1.30;;;1.20;;
21890;SDS011;11110;52.386;16.940;2023-07-20T14:10:43;1.15;;;1.00;;
21890;SDS011;11110;52.386;16.940;2023-07-20T14:13:15;1.10;;;1.00;;
21890;SDS011;11110;52.386;16.940;2023-07-20T14:15:43;1.80;;;0.93;;
21890;SDS011;11110;52.386;16.940;2023-07-20T14:18:12;1.00;;;0.95;;
21890;SDS011;11110;52.386;16.940;2023-07-20T14:20:43;1.25;;;1.10;;
21890;SDS011;11110;52.386;16.940;2023-07-20T14:23:11;2.55;;;0.90;;
21890;SDS011;11110;52.386;16.940;2023-07-20T14:25:40;0.88;;;0.88;;
21890;SDS011;11110;52.386;16.940;2023-07-20T14:28:10;1.02;;;0.80;;
21890;SDS011;11110;52.386;16.940;2023-07-20T14:30:38;0.77;;;0.70;;
21890;SDS011;11110;52.386;16.940;2023-07-20T14:33:07;0.60;;;0.60;;
21890;SDS011;11110;52.386;16.940;2023-07-20T14:35:36;1.17;;;0.80;;
21890;SDS011;11110;52.386;16.940;2023-07-20T14:38:04;0.70;;;0.70;;
21890;SDS011;11110;52.386;16.940;2023-07-20T14:40:33;0.93;;;0.80;;
21890;SDS011;11110;52.386;16.940;2023-07-20T14:43:01;0.70;;;0.70;;
21890;SDS011;11110;52.386;16.940;2023-07-20T14:45:31;1.95;;;0.90;;
21890;SDS011;11110;52.386;16.940;2023-07-20T14:48:00;0.95;;;0.95;;
21890;SDS011;11110;52.386;16.940;2023-07-20T14:50:28;2.22;;;0.90;;
21890;SDS011;11110;52.386;16.940;2023-07-20T14:52:57;0.90;;;0.90;;
21890;SDS011;11110;52.386;16.940;2023-07-20T14:55:32;2.63;;;1.25;;